sensor_id;sensor_type;location;lat;lon;timestamp;P1;durP1;ratioP1;P2;durP2;ratioP2
11533;SDS011;5823;50.588;8.462;2022-08-11T00:01:43;0.30;;;0.30;;
11533;SDS011;5823;50.588;8.462;2022-08-11T00:04:09;0.22;;;0.22;;
11533;SDS011;5823;50.588;8.462;2022-08-11T00:06:37;0.40;;;0.40;;
11533;SDS011;5823;50.588;8.462;2022-08-11T00:09:04;0.10;;;0.10;;
11533;SDS011;5823;50.588;8.462;2022-08-11T00:11:33;0.20;;;0.20;;
11533;SDS011;5823;50.588;8.462;2022-08-11T00:13:59;0.60;;;0.60;;
11533;SDS011;5823;50.588;8.462;2022-08-11T00:16:27;0.35;;;0.35;;
11533;SDS011;5823;50.588;8.462;2022-08-11T00:18:55;0.30;;;0.30;;
11533;SDS011;5823;50.588;8.462;2022-08-11T00:21:22;0.40;;;0.40;;
11533;SDS011;5823;50.588;8.462;2022-08-11T00:23:52;0.30;;;0.30;;
11533;SDS011;5823;50.588;8.462;2022-08-11T00:26:19;0.30;;;0.30;;
11533;SDS011;5823;50.588;8.462;2022-08-11T00:28:46;0.40;;;0.40;;
11533;SDS011;5823;50.588;8.462;2022-08-11T00:31:19;0.22;;;0.22;;
11533;SDS011;5823;50.588;8.462;2022-08-11T00:33:48;0.40;;;0.40;;
11533;SDS011;5823;50.588;8.462;2022-08-11T00:36:16;0.50;;;0.50;;
11533;SDS011;5823;50.588;8.462;2022-08-11T00:38:44;0.52;;;0.50;;
11533;SDS011;5823;50.588;8.462;2022-08-11T00:41:15;0.30;;;0.30;;
11533;SDS011;5823;50.588;8.462;2022-08-11T00:44:03;0.50;;;0.50;;
11533;SDS011;5823;50.588;8.462;2022-08-11T00:46:34;0.40;;;0.30;;
11533;SDS011;5823;50.588;8.462;2022-08-11T00:49:10;0.25;;;0.25;;
11533;SDS011;5823;50.588;8.462;2022-08-11T00:51:51;0.30;;;0.30;;
11533;SDS011;5823;50.588;8.462;2022-08-11T00:54:35;0.45;;;0.45;;
11533;SDS011;5823;50.588;8.462;2022-08-11T00:57:14;0.22;;;0.22;;
11533;SDS011;5823;50.588;8.462;2022-08-11T00:59:55;0.43;;;0.43;;
11533;SDS011;5823;50.588;8.462;2022-08-11T01:02:38;0.40;;;0.40;;
11533;SDS011;5823;50.588;8.462;2022-08-11T01:05:15;0.45;;;0.45;;
11533;SDS011;5823;50.588;8.462;2022-08-11T01:16:31;0.30;;;0.30;;
11533;SDS011;5823;50.588;8.462;2022-08-11T01:22:05;0.25;;;0.22;;
11533;SDS011;5823;50.588;8.462;2022-08-11T01:27:25;0.60;;;0.60;;
11533;SDS011;5823;50.588;8.462;2022-08-11T01:30:06;0.68;;;0.50;;
11533;SDS011;5823;50.588;8.462;2022-08-11T01:35:34;0.28;;;0.28;;
11533;SDS011;5823;50.588;8.462;2022-08-11T01:38:11;0.40;;;0.40;;
11533;SDS011;5823;50.588;8.462;2022-08-11T01:46:43;0.20;;;0.20;;
11533;SDS011;5823;50.588;8.462;2022-08-11T01:49:12;0.40;;;0.40;;
11533;SDS011;5823;50.588;8.462;2022-08-11T01:51:47;0.30;;;0.30;;
11533;SDS011;5823;50.588;8.462;2022-08-11T01:54:26;0.20;;;0.20;;
11533;SDS011;5823;50.588;8.462;2022-08-11T01:56:58;0.40;;;0.40;;
11533;SDS011;5823;50.588;8.462;2022-08-11T01:59:31;0.30;;;0.30;;
11533;SDS011;5823;50.588;8.462;2022-08-11T02:02:04;0.40;;;0.40;;
11533;SDS011;5823;50.588;8.462;2022-08-11T02:04:34;0.45;;;0.45;;
11533;SDS011;5823;50.588;8.462;2022-08-11T02:07:09;0.35;;;0.30;;
11533;SDS011;5823;50.588;8.462;2022-08-11T02:09:42;0.50;;;0.50;;
11533;SDS011;5823;50.588;8.462;2022-08-11T02:12:13;0.30;;;0.30;;
11533;SDS011;5823;50.588;8.462;2022-08-11T02:14:42;0.40;;;0.40;;
11533;SDS011;5823;50.588;8.462;2022-08-11T02:17:11;0.22;;;0.22;;
11533;SDS011;5823;50.588;8.462;2022-08-11T02:19:41;0.32;;;0.32;;
11533;SDS011;5823;50.588;8.462;2022-08-11T02:22:30;0.43;;;0.43;;
11533;SDS011;5823;50.588;8.462;2022-08-11T02:25:20;0.30;;;0.30;;
11533;SDS011;5823;50.588;8.462;2022-08-11T02:27:50;0.35;;;0.30;;
11533;SDS011;5823;50.588;8.462;2022-08-11T02:30:19;0.40;;;0.40;;
11533;SDS011;5823;50.588;8.462;2022-08-11T02:32:50;0.40;;;0.40;;
11533;SDS011;5823;50.588;8.462;2022-08-11T02:35:37;0.20;;;0.20;;
11533;SDS011;5823;50.588;8.462;2022-08-11T02:38:10;0.60;;;0.60;;
11533;SDS011;5823;50.588;8.462;2022-08-11T02:40:41;0.52;;;0.52;;
11533;SDS011;5823;50.588;8.462;2022-08-11T02:43:16;0.60;;;0.60;;
11533;SDS011;5823;50.588;8.462;2022-08-11T02:45:48;0.60;;;0.60;;
11533;SDS011;5823;50.588;8.462;2022-08-11T02:48:21;0.30;;;0.30;;
11533;SDS011;5823;50.588;8.462;2022-08-11T02:51:09;0.50;;;0.50;;
11533;SDS011;5823;50.588;8.462;2022-08-11T02:53:39;0.50;;;0.50;;
11533;SDS011;5823;50.588;8.462;2022-08-11T02:56:10;0.20;;;0.20;;
11533;SDS011;5823;50.588;8.462;2022-08-11T02:58:40;0.50;;;0.50;;
11533;SDS011;5823;50.588;8.462;2022-08-11T03:01:11;0.32;;;0.32;;
11533;SDS011;5823;50.588;8.462;2022-08-11T03:03:43;0.35;;;0.35;;
11533;SDS011;5823;50.588;8.462;2022-08-11T03:06:16;0.32;;;0.32;;
11533;SDS011;5823;50.588;8.462;2022-08-11T03:08:48;0.40;;;0.40;;
11533;SDS011;5823;50.588;8.462;2022-08-11T03:11:20;0.30;;;0.30;;
11533;SDS011;5823;50.588;8.462;2022-08-11T03:14:11;0.30;;;0.30;;
11533;SDS011;5823;50.588;8.462;2022-08-11T03:16:57;0.77;;;0.30;;
11533;SDS011;5823;50.588;8.462;2022-08-11T03:19:27;0.50;;;0.50;;
11533;SDS011;5823;50.588;8.462;2022-08-11T03:21:58;0.30;;;0.30;;
11533;SDS011;5823;50.588;8.462;2022-08-11T03:24:30;0.30;;;0.30;;
11533;SDS011;5823;50.588;8.462;2022-08-11T03:27:02;0.50;;;0.50;;
11533;SDS011;5823;50.588;8.462;2022-08-11T03:29:30;0.20;;;0.20;;
11533;SDS011;5823;50.588;8.462;2022-08-11T03:32:00;0.45;;;0.30;;
11533;SDS011;5823;50.588;8.462;2022-08-11T03:34:28;0.50;;;0.50;;
11533;SDS011;5823;50.588;8.462;2022-08-11T03:37:05;0.50;;;0.50;;
11533;SDS011;5823;50.588;8.462;2022-08-11T03:39:41;0.40;;;0.40;;
11533;SDS011;5823;50.588;8.462;2022-08-11T03:42:14;0.15;;;0.15;;
11533;SDS011;5823;50.588;8.462;2022-08-11T03:44:47;0.30;;;0.30;;
11533;SDS011;5823;50.588;8.462;2022-08-11T03:47:22;0.40;;;0.40;;
11533;SDS011;5823;50.588;8.462;2022-08-11T03:49:56;0.65;;;0.50;;
11533;SDS011;5823;50.588;8.462;2022-08-11T03:52:27;0.30;;;0.30;;
11533;SDS011;5823;50.588;8.462;2022-08-11T03:54:59;0.20;;;0.20;;
11533;SDS011;5823;50.588;8.462;2022-08-11T04:00:28;0.22;;;0.22;;
11533;SDS011;5823;50.588;8.462;2022-08-11T04:08:34;0.30;;;0.30;;
11533;SDS011;5823;50.588;8.462;2022-08-11T04:14:09;0.40;;;0.40;;
11533;SDS011;5823;50.588;8.462;2022-08-11T04:16:59;0.35;;;0.35;;
11533;SDS011;5823;50.588;8.462;2022-08-11T04:19:46;0.38;;;0.38;;
11533;SDS011;5823;50.588;8.462;2022-08-11T04:22:30;0.55;;;0.55;;
11533;SDS011;5823;50.588;8.462;2022-08-11T04:25:16;0.50;;;0.50;;
11533;SDS011;5823;50.588;8.462;2022-08-11T04:30:29;0.30;;;0.30;;
11533;SDS011;5823;50.588;8.462;2022-08-11T04:33:17;0.47;;;0.47;;
11533;SDS011;5823;50.588;8.462;2022-08-11T04:35:56;0.40;;;0.40;;
11533;SDS011;5823;50.588;8.462;2022-08-11T04:38:33;0.32;;;0.32;;
11533;SDS011;5823;50.588;8.462;2022-08-11T04:49:35;0.30;;;0.30;;
11533;SDS011;5823;50.588;8.462;2022-08-11T04:55:27;0.40;;;0.40;;
11533;SDS011;5823;50.588;8.462;2022-08-11T04:58:16;0.52;;;0.52;;
11533;SDS011;5823;50.588;8.462;2022-08-11T05:01:05;0.28;;;0.28;;
11533;SDS011;5823;50.588;8.462;2022-08-11T05:04:18;0.43;;;0.43;;
11533;SDS011;5823;50.588;8.462;2022-08-11T05:07:30;0.40;;;0.40;;
11533;SDS011;5823;50.588;8.462;2022-08-11T05:10:10;0.40;;;0.40;;
11533;SDS011;5823;50.588;8.462;2022-08-11T05:12:42;0.60;;;0.60;;
11533;SDS011;5823;50.588;8.462;2022-08-11T05:15:12;0.60;;;0.60;;
11533;SDS011;5823;50.588;8.462;2022-08-11T05:17:57;0.50;;;0.50;;
11533;SDS011;5823;50.588;8.462;2022-08-11T05:20:45;0.50;;;0.50;;
11533;SDS011;5823;50.588;8.462;2022-08-11T05:23:31;0.40;;;0.40;;
11533;SDS011;5823;50.588;8.462;2022-08-11T05:26:16;0.30;;;0.30;;
11533;SDS011;5823;50.588;8.462;2022-08-11T05:29:02;0.30;;;0.30;;
11533;SDS011;5823;50.588;8.462;2022-08-11T05:31:48;0.50;;;0.50;;
11533;SDS011;5823;50.588;8.462;2022-08-11T05:34:40;0.20;;;0.20;;
11533;SDS011;5823;50.588;8.462;2022-08-11T05:37:18;0.50;;;0.50;;
11533;SDS011;5823;50.588;8.462;2022-08-11T05:39:47;0.60;;;0.60;;
11533;SDS011;5823;50.588;8.462;2022-08-11T05:42:32;0.40;;;0.40;;
11533;SDS011;5823;50.588;8.462;2022-08-11T05:45:17;0.52;;;0.52;;
11533;SDS011;5823;50.588;8.462;2022-08-11T05:48:01;0.47;;;0.47;;
11533;SDS011;5823;50.588;8.462;2022-08-11T05:50:49;0.40;;;0.40;;
11533;SDS011;5823;50.588;8.462;2022-08-11T05:53:34;0.40;;;0.40;;
11533;SDS011;5823;50.588;8.462;2022-08-11T05:56:19;0.30;;;0.30;;
11533;SDS011;5823;50.588;8.462;2022-08-11T05:58:47;0.50;;;0.50;;
11533;SDS011;5823;50.588;8.462;2022-08-11T06:01:20;0.38;;;0.38;;
11533;SDS011;5823;50.588;8.462;2022-08-11T06:03:48;0.20;;;0.20;;
11533;SDS011;5823;50.588;8.462;2022-08-11T06:06:32;0.35;;;0.35;;
11533;SDS011;5823;50.588;8.462;2022-08-11T06:08:59;0.47;;;0.47;;
11533;SDS011;5823;50.588;8.462;2022-08-11T06:11:27;0.20;;;0.20;;
11533;SDS011;5823;50.588;8.462;2022-08-11T06:13:56;0.20;;;0.20;;
11533;SDS011;5823;50.588;8.462;2022-08-11T06:16:24;0.25;;;0.25;;
11533;SDS011;5823;50.588;8.462;2022-08-11T06:18:52;0.30;;;0.30;;
11533;SDS011;5823;50.588;8.462;2022-08-11T06:21:19;0.20;;;0.20;;
11533;SDS011;5823;50.588;8.462;2022-08-11T06:23:46;0.25;;;0.25;;
11533;SDS011;5823;50.588;8.462;2022-08-11T06:26:13;0.43;;;0.43;;
11533;SDS011;5823;50.588;8.462;2022-08-11T06:28:42;0.32;;;0.32;;
11533;SDS011;5823;50.588;8.462;2022-08-11T06:31:10;0.40;;;0.40;;
11533;SDS011;5823;50.588;8.462;2022-08-11T06:33:37;0.40;;;0.40;;
11533;SDS011;5823;50.588;8.462;2022-08-11T06:36:12;0.30;;;0.30;;
11533;SDS011;5823;50.588;8.462;2022-08-11T06:38:47;0.30;;;0.30;;
11533;SDS011;5823;50.588;8.462;2022-08-11T06:41:17;0.60;;;0.60;;
11533;SDS011;5823;50.588;8.462;2022-08-11T06:44:01;0.50;;;0.50;;
11533;SDS011;5823;50.588;8.462;2022-08-11T06:46:33;0.65;;;0.47;;
11533;SDS011;5823;50.588;8.462;2022-08-11T06:49:03;0.50;;;0.50;;
11533;SDS011;5823;50.588;8.462;2022-08-11T06:51:30;0.52;;;0.52;;
11533;SDS011;5823;50.588;8.462;2022-08-11T06:53:56;0.52;;;0.52;;
11533;SDS011;5823;50.588;8.462;2022-08-11T06:56:29;0.50;;;0.50;;
11533;SDS011;5823;50.588;8.462;2022-08-11T06:59:15;0.50;;;0.50;;
11533;SDS011;5823;50.588;8.462;2022-08-11T07:02:00;0.38;;;0.38;;
11533;SDS011;5823;50.588;8.462;2022-08-11T07:04:29;0.30;;;0.30;;
11533;SDS011;5823;50.588;8.462;2022-08-11T07:07:00;0.20;;;0.20;;
11533;SDS011;5823;50.588;8.462;2022-08-11T07:09:57;0.30;;;0.30;;
11533;SDS011;5823;50.588;8.462;2022-08-11T07:12:45;0.22;;;0.22;;
11533;SDS011;5823;50.588;8.462;2022-08-11T07:15:33;0.30;;;0.30;;
11533;SDS011;5823;50.588;8.462;2022-08-11T07:18:10;0.30;;;0.28;;
11533;SDS011;5823;50.588;8.462;2022-08-11T07:20:54;0.30;;;0.30;;
11533;SDS011;5823;50.588;8.462;2022-08-11T07:23:48;0.30;;;0.30;;
11533;SDS011;5823;50.588;8.462;2022-08-11T07:26:33;0.30;;;0.30;;
11533;SDS011;5823;50.588;8.462;2022-08-11T07:29:17;0.25;;;0.25;;
11533;SDS011;5823;50.588;8.462;2022-08-11T07:31:47;0.20;;;0.20;;
11533;SDS011;5823;50.588;8.462;2022-08-11T07:34:16;0.30;;;0.30;;
11533;SDS011;5823;50.588;8.462;2022-08-11T07:36:45;0.38;;;0.38;;
11533;SDS011;5823;50.588;8.462;2022-08-11T07:39:14;0.30;;;0.30;;
11533;SDS011;5823;50.588;8.462;2022-08-11T07:41:41;0.15;;;0.15;;
11533;SDS011;5823;50.588;8.462;2022-08-11T07:44:08;0.10;;;0.10;;
11533;SDS011;5823;50.588;8.462;2022-08-11T07:46:35;0.40;;;0.40;;
11533;SDS011;5823;50.588;8.462;2022-08-11T07:49:23;0.25;;;0.20;;
11533;SDS011;5823;50.588;8.462;2022-08-11T07:52:07;0.10;;;0.10;;
11533;SDS011;5823;50.588;8.462;2022-08-11T07:54:53;0.20;;;0.20;;
11533;SDS011;5823;50.588;8.462;2022-08-11T07:57:20;0.20;;;0.20;;
11533;SDS011;5823;50.588;8.462;2022-08-11T08:00:05;0.30;;;0.30;;
11533;SDS011;5823;50.588;8.462;2022-08-11T08:02:49;0.30;;;0.30;;
11533;SDS011;5823;50.588;8.462;2022-08-11T08:05:34;0.13;;;0.13;;
11533;SDS011;5823;50.588;8.462;2022-08-11T08:08:19;0.13;;;0.13;;
11533;SDS011;5823;50.588;8.462;2022-08-11T08:11:04;0.50;;;0.50;;
11533;SDS011;5823;50.588;8.462;2022-08-11T08:13:48;0.43;;;0.43;;
11533;SDS011;5823;50.588;8.462;2022-08-11T08:16:31;0.35;;;0.35;;
11533;SDS011;5823;50.588;8.462;2022-08-11T08:19:17;0.63;;;0.63;;
11533;SDS011;5823;50.588;8.462;2022-08-11T08:21:46;0.30;;;0.30;;
11533;SDS011;5823;50.588;8.462;2022-08-11T08:24:12;0.45;;;0.30;;
11533;SDS011;5823;50.588;8.462;2022-08-11T08:26:39;0.30;;;0.22;;
11533;SDS011;5823;50.588;8.462;2022-08-11T08:29:28;0.50;;;0.50;;
11533;SDS011;5823;50.588;8.462;2022-08-11T08:32:12;0.40;;;0.40;;
11533;SDS011;5823;50.588;8.462;2022-08-11T08:34:40;0.20;;;0.20;;
11533;SDS011;5823;50.588;8.462;2022-08-11T08:37:08;0.30;;;0.30;;
11533;SDS011;5823;50.588;8.462;2022-08-11T08:39:35;0.22;;;0.22;;
11533;SDS011;5823;50.588;8.462;2022-08-11T08:42:03;0.40;;;0.40;;
11533;SDS011;5823;50.588;8.462;2022-08-11T08:44:32;0.50;;;0.50;;
11533;SDS011;5823;50.588;8.462;2022-08-11T08:46:59;1.05;;;0.93;;
11533;SDS011;5823;50.588;8.462;2022-08-11T08:49:29;0.60;;;0.60;;
11533;SDS011;5823;50.588;8.462;2022-08-11T08:51:57;0.88;;;0.80;;
11533;SDS011;5823;50.588;8.462;2022-08-11T08:54:29;0.50;;;0.50;;
11533;SDS011;5823;50.588;8.462;2022-08-11T08:56:58;0.50;;;0.50;;
11533;SDS011;5823;50.588;8.462;2022-08-11T08:59:27;0.50;;;0.50;;
11533;SDS011;5823;50.588;8.462;2022-08-11T09:01:54;0.30;;;0.30;;
11533;SDS011;5823;50.588;8.462;2022-08-11T09:04:21;0.30;;;0.30;;
11533;SDS011;5823;50.588;8.462;2022-08-11T09:06:48;0.40;;;0.40;;
11533;SDS011;5823;50.588;8.462;2022-08-11T09:09:15;0.20;;;0.20;;
11533;SDS011;5823;50.588;8.462;2022-08-11T09:11:43;0.30;;;0.30;;
11533;SDS011;5823;50.588;8.462;2022-08-11T09:14:17;0.45;;;0.45;;
11533;SDS011;5823;50.588;8.462;2022-08-11T09:16:44;0.60;;;0.60;;
11533;SDS011;5823;50.588;8.462;2022-08-11T09:19:12;0.75;;;0.55;;
11533;SDS011;5823;50.588;8.462;2022-08-11T09:21:42;0.40;;;0.40;;
11533;SDS011;5823;50.588;8.462;2022-08-11T09:24:09;0.75;;;0.75;;
11533;SDS011;5823;50.588;8.462;2022-08-11T09:26:55;0.50;;;0.50;;
11533;SDS011;5823;50.588;8.462;2022-08-11T09:29:27;0.70;;;0.70;;
11533;SDS011;5823;50.588;8.462;2022-08-11T09:31:53;0.70;;;0.70;;
11533;SDS011;5823;50.588;8.462;2022-08-11T09:34:21;0.52;;;0.52;;
11533;SDS011;5823;50.588;8.462;2022-08-11T09:36:48;0.57;;;0.57;;
11533;SDS011;5823;50.588;8.462;2022-08-11T09:39:35;0.47;;;0.47;;
11533;SDS011;5823;50.588;8.462;2022-08-11T09:42:20;0.38;;;0.38;;
11533;SDS011;5823;50.588;8.462;2022-08-11T09:44:47;0.68;;;0.68;;
11533;SDS011;5823;50.588;8.462;2022-08-11T09:47:15;0.70;;;0.70;;
11533;SDS011;5823;50.588;8.462;2022-08-11T09:49:42;0.80;;;0.80;;
11533;SDS011;5823;50.588;8.462;2022-08-11T09:52:09;0.47;;;0.47;;
11533;SDS011;5823;50.588;8.462;2022-08-11T09:54:37;0.35;;;0.35;;
11533;SDS011;5823;50.588;8.462;2022-08-11T09:57:04;0.63;;;0.63;;
11533;SDS011;5823;50.588;8.462;2022-08-11T09:59:49;0.60;;;0.60;;
11533;SDS011;5823;50.588;8.462;2022-08-11T10:02:17;1.00;;;1.00;;
11533;SDS011;5823;50.588;8.462;2022-08-11T10:04:47;0.82;;;0.82;;
11533;SDS011;5823;50.588;8.462;2022-08-11T10:07:15;0.63;;;0.63;;
11533;SDS011;5823;50.588;8.462;2022-08-11T10:09:44;1.02;;;0.90;;
11533;SDS011;5823;50.588;8.462;2022-08-11T10:12:13;0.68;;;0.68;;
11533;SDS011;5823;50.588;8.462;2022-08-11T10:14:43;1.35;;;1.25;;
11533;SDS011;5823;50.588;8.462;2022-08-11T10:17:30;1.05;;;1.00;;
11533;SDS011;5823;50.588;8.462;2022-08-11T10:19:56;0.80;;;0.80;;
11533;SDS011;5823;50.588;8.462;2022-08-11T10:22:23;0.85;;;0.85;;
11533;SDS011;5823;50.588;8.462;2022-08-11T10:25:07;0.60;;;0.60;;
11533;SDS011;5823;50.588;8.462;2022-08-11T10:27:51;0.65;;;0.65;;
11533;SDS011;5823;50.588;8.462;2022-08-11T10:30:24;0.80;;;0.57;;
11533;SDS011;5823;50.588;8.462;2022-08-11T10:33:10;1.10;;;1.10;;
11533;SDS011;5823;50.588;8.462;2022-08-11T10:35:54;0.90;;;0.90;;
11533;SDS011;5823;50.588;8.462;2022-08-11T10:38:21;0.90;;;0.90;;
11533;SDS011;5823;50.588;8.462;2022-08-11T10:40:47;0.70;;;0.70;;
11533;SDS011;5823;50.588;8.462;2022-08-11T10:43:36;1.40;;;1.30;;
11533;SDS011;5823;50.588;8.462;2022-08-11T10:46:02;1.00;;;1.00;;
11533;SDS011;5823;50.588;8.462;2022-08-11T10:48:47;0.70;;;0.70;;
11533;SDS011;5823;50.588;8.462;2022-08-11T10:51:14;0.65;;;0.65;;
11533;SDS011;5823;50.588;8.462;2022-08-11T10:53:42;0.68;;;0.68;;
11533;SDS011;5823;50.588;8.462;2022-08-11T10:56:27;0.60;;;0.60;;
11533;SDS011;5823;50.588;8.462;2022-08-11T10:59:11;0.55;;;0.55;;
11533;SDS011;5823;50.588;8.462;2022-08-11T11:01:39;0.80;;;0.80;;
11533;SDS011;5823;50.588;8.462;2022-08-11T11:04:12;0.88;;;0.88;;
11533;SDS011;5823;50.588;8.462;2022-08-11T11:06:41;0.82;;;0.82;;
11533;SDS011;5823;50.588;8.462;2022-08-11T11:09:12;0.85;;;0.85;;
11533;SDS011;5823;50.588;8.462;2022-08-11T11:11:42;0.80;;;0.80;;
11533;SDS011;5823;50.588;8.462;2022-08-11T11:14:27;0.90;;;0.90;;
11533;SDS011;5823;50.588;8.462;2022-08-11T11:17:12;0.85;;;0.85;;
11533;SDS011;5823;50.588;8.462;2022-08-11T11:19:59;0.50;;;0.50;;
11533;SDS011;5823;50.588;8.462;2022-08-11T11:22:27;0.80;;;0.80;;
11533;SDS011;5823;50.588;8.462;2022-08-11T11:25:13;0.63;;;0.63;;
11533;SDS011;5823;50.588;8.462;2022-08-11T11:27:47;0.70;;;0.70;;
11533;SDS011;5823;50.588;8.462;2022-08-11T11:30:15;0.60;;;0.60;;
11533;SDS011;5823;50.588;8.462;2022-08-11T11:32:43;0.50;;;0.50;;
11533;SDS011;5823;50.588;8.462;2022-08-11T11:35:17;0.40;;;0.40;;
11533;SDS011;5823;50.588;8.462;2022-08-11T11:37:50;0.50;;;0.50;;
11533;SDS011;5823;50.588;8.462;2022-08-11T11:40:18;0.60;;;0.60;;
11533;SDS011;5823;50.588;8.462;2022-08-11T11:42:45;0.60;;;0.60;;
11533;SDS011;5823;50.588;8.462;2022-08-11T11:45:14;0.93;;;0.93;;
11533;SDS011;5823;50.588;8.462;2022-08-11T11:47:40;0.90;;;0.90;;
11533;SDS011;5823;50.588;8.462;2022-08-11T11:50:08;0.80;;;0.80;;
11533;SDS011;5823;50.588;8.462;2022-08-11T11:52:36;1.00;;;1.00;;
11533;SDS011;5823;50.588;8.462;2022-08-11T11:55:03;1.00;;;1.00;;
11533;SDS011;5823;50.588;8.462;2022-08-11T11:57:33;1.15;;;1.00;;
11533;SDS011;5823;50.588;8.462;2022-08-11T12:00:17;0.90;;;0.90;;
11533;SDS011;5823;50.588;8.462;2022-08-11T12:03:02;0.70;;;0.70;;
11533;SDS011;5823;50.588;8.462;2022-08-11T12:05:30;1.08;;;0.85;;
11533;SDS011;5823;50.588;8.462;2022-08-11T12:07:59;0.63;;;0.63;;
11533;SDS011;5823;50.588;8.462;2022-08-11T12:10:39;0.80;;;0.80;;
11533;SDS011;5823;50.588;8.462;2022-08-11T12:13:05;0.90;;;0.90;;
11533;SDS011;5823;50.588;8.462;2022-08-11T12:15:49;0.80;;;0.80;;
11533;SDS011;5823;50.588;8.462;2022-08-11T12:18:17;0.85;;;0.82;;
11533;SDS011;5823;50.588;8.462;2022-08-11T12:20:44;1.58;;;1.13;;
11533;SDS011;5823;50.588;8.462;2022-08-11T12:23:12;0.90;;;0.90;;
11533;SDS011;5823;50.588;8.462;2022-08-11T12:25:56;0.60;;;0.60;;
11533;SDS011;5823;50.588;8.462;2022-08-11T12:28:41;0.70;;;0.70;;
11533;SDS011;5823;50.588;8.462;2022-08-11T12:31:07;0.80;;;0.80;;
11533;SDS011;5823;50.588;8.462;2022-08-11T12:33:35;0.60;;;0.60;;
11533;SDS011;5823;50.588;8.462;2022-08-11T12:36:01;0.57;;;0.57;;
11533;SDS011;5823;50.588;8.462;2022-08-11T12:38:29;0.80;;;0.80;;
11533;SDS011;5823;50.588;8.462;2022-08-11T12:40:56;0.70;;;0.70;;
11533;SDS011;5823;50.588;8.462;2022-08-11T12:43:41;0.98;;;0.90;;
11533;SDS011;5823;50.588;8.462;2022-08-11T12:46:28;0.70;;;0.70;;
11533;SDS011;5823;50.588;8.462;2022-08-11T12:48:56;0.70;;;0.70;;
11533;SDS011;5823;50.588;8.462;2022-08-11T12:51:41;0.80;;;0.80;;
11533;SDS011;5823;50.588;8.462;2022-08-11T12:54:28;0.77;;;0.77;;
11533;SDS011;5823;50.588;8.462;2022-08-11T12:56:57;1.42;;;1.23;;
11533;SDS011;5823;50.588;8.462;2022-08-11T12:59:42;0.90;;;0.90;;
11533;SDS011;5823;50.588;8.462;2022-08-11T13:02:28;0.98;;;0.98;;
11533;SDS011;5823;50.588;8.462;2022-08-11T13:05:13;0.80;;;0.80;;
11533;SDS011;5823;50.588;8.462;2022-08-11T13:07:41;0.90;;;0.90;;
11533;SDS011;5823;50.588;8.462;2022-08-11T13:10:10;0.80;;;0.80;;
11533;SDS011;5823;50.588;8.462;2022-08-11T13:12:36;0.90;;;0.90;;
11533;SDS011;5823;50.588;8.462;2022-08-11T13:15:15;0.95;;;0.95;;
11533;SDS011;5823;50.588;8.462;2022-08-11T13:17:42;0.75;;;0.75;;
11533;SDS011;5823;50.588;8.462;2022-08-11T13:20:09;1.08;;;0.93;;
11533;SDS011;5823;50.588;8.462;2022-08-11T13:22:36;0.73;;;0.73;;
11533;SDS011;5823;50.588;8.462;2022-08-11T13:25:03;0.80;;;0.80;;
11533;SDS011;5823;50.588;8.462;2022-08-11T13:27:32;0.60;;;0.60;;
11533;SDS011;5823;50.588;8.462;2022-08-11T13:29:59;0.70;;;0.70;;
11533;SDS011;5823;50.588;8.462;2022-08-11T13:32:43;1.17;;;1.10;;
11533;SDS011;5823;50.588;8.462;2022-08-11T13:35:11;0.80;;;0.80;;
11533;SDS011;5823;50.588;8.462;2022-08-11T13:37:39;0.80;;;0.80;;
11533;SDS011;5823;50.588;8.462;2022-08-11T13:40:06;0.63;;;0.63;;
11533;SDS011;5823;50.588;8.462;2022-08-11T13:42:34;0.68;;;0.68;;
11533;SDS011;5823;50.588;8.462;2022-08-11T13:45:00;0.52;;;0.52;;
11533;SDS011;5823;50.588;8.462;2022-08-11T13:47:27;0.70;;;0.70;;
11533;SDS011;5823;50.588;8.462;2022-08-11T13:49:53;0.70;;;0.70;;
11533;SDS011;5823;50.588;8.462;2022-08-11T13:52:21;0.43;;;0.43;;
11533;SDS011;5823;50.588;8.462;2022-08-11T13:54:48;0.50;;;0.50;;
11533;SDS011;5823;50.588;8.462;2022-08-11T13:57:17;0.75;;;0.75;;
11533;SDS011;5823;50.588;8.462;2022-08-11T13:59:45;0.77;;;0.77;;
11533;SDS011;5823;50.588;8.462;2022-08-11T14:02:13;0.63;;;0.63;;
11533;SDS011;5823;50.588;8.462;2022-08-11T14:04:41;0.80;;;0.80;;
11533;SDS011;5823;50.588;8.462;2022-08-11T14:07:09;0.80;;;0.80;;
11533;SDS011;5823;50.588;8.462;2022-08-11T14:09:36;0.93;;;0.93;;
11533;SDS011;5823;50.588;8.462;2022-08-11T14:12:06;0.80;;;0.80;;
11533;SDS011;5823;50.588;8.462;2022-08-11T14:14:54;0.88;;;0.88;;
11533;SDS011;5823;50.588;8.462;2022-08-11T14:17:23;1.30;;;1.20;;
11533;SDS011;5823;50.588;8.462;2022-08-11T14:19:50;1.05;;;0.90;;
11533;SDS011;5823;50.588;8.462;2022-08-11T14:22:17;0.70;;;0.70;;
11533;SDS011;5823;50.588;8.462;2022-08-11T14:24:46;0.70;;;0.70;;
11533;SDS011;5823;50.588;8.462;2022-08-11T14:27:13;0.80;;;0.80;;
11533;SDS011;5823;50.588;8.462;2022-08-11T14:29:40;0.73;;;0.73;;
11533;SDS011;5823;50.588;8.462;2022-08-11T14:32:10;0.60;;;0.60;;
11533;SDS011;5823;50.588;8.462;2022-08-11T14:34:38;0.80;;;0.80;;
11533;SDS011;5823;50.588;8.462;2022-08-11T14:37:06;1.05;;;0.95;;
11533;SDS011;5823;50.588;8.462;2022-08-11T14:39:37;0.80;;;0.80;;
11533;SDS011;5823;50.588;8.462;2022-08-11T14:42:05;0.70;;;0.70;;
11533;SDS011;5823;50.588;8.462;2022-08-11T14:44:50;0.68;;;0.68;;
11533;SDS011;5823;50.588;8.462;2022-08-11T14:47:45;0.60;;;0.60;;
11533;SDS011;5823;50.588;8.462;2022-08-11T14:50:13;0.60;;;0.60;;
11533;SDS011;5823;50.588;8.462;2022-08-11T14:52:45;0.70;;;0.70;;
11533;SDS011;5823;50.588;8.462;2022-08-11T14:55:14;0.75;;;0.75;;
11533;SDS011;5823;50.588;8.462;2022-08-11T14:57:59;0.60;;;0.60;;
11533;SDS011;5823;50.588;8.462;2022-08-11T15:00:25;0.63;;;0.63;;
11533;SDS011;5823;50.588;8.462;2022-08-11T15:02:53;0.70;;;0.70;;
11533;SDS011;5823;50.588;8.462;2022-08-11T15:05:34;0.52;;;0.52;;
11533;SDS011;5823;50.588;8.462;2022-08-11T15:08:02;0.80;;;0.80;;
11533;SDS011;5823;50.588;8.462;2022-08-11T15:10:28;0.80;;;0.80;;
11533;SDS011;5823;50.588;8.462;2022-08-11T15:12:55;0.70;;;0.70;;
11533;SDS011;5823;50.588;8.462;2022-08-11T15:15:21;0.85;;;0.85;;
11533;SDS011;5823;50.588;8.462;2022-08-11T15:18:09;0.73;;;0.73;;
11533;SDS011;5823;50.588;8.462;2022-08-11T15:20:36;0.60;;;0.60;;
11533;SDS011;5823;50.588;8.462;2022-08-11T15:23:20;0.50;;;0.50;;
11533;SDS011;5823;50.588;8.462;2022-08-11T15:26:06;0.50;;;0.50;;
11533;SDS011;5823;50.588;8.462;2022-08-11T15:28:35;0.73;;;0.73;;
11533;SDS011;5823;50.588;8.462;2022-08-11T15:31:20;0.90;;;0.90;;
11533;SDS011;5823;50.588;8.462;2022-08-11T15:34:04;0.88;;;0.88;;
11533;SDS011;5823;50.588;8.462;2022-08-11T15:36:48;1.20;;;1.10;;
11533;SDS011;5823;50.588;8.462;2022-08-11T15:39:33;1.30;;;1.20;;
11533;SDS011;5823;50.588;8.462;2022-08-11T15:42:01;0.80;;;0.80;;
11533;SDS011;5823;50.588;8.462;2022-08-11T15:44:46;0.88;;;0.88;;
11533;SDS011;5823;50.588;8.462;2022-08-11T15:47:34;0.73;;;0.73;;
11533;SDS011;5823;50.588;8.462;2022-08-11T15:50:03;1.40;;;1.30;;
11533;SDS011;5823;50.588;8.462;2022-08-11T15:52:31;1.20;;;1.10;;
11533;SDS011;5823;50.588;8.462;2022-08-11T15:54:59;0.90;;;0.90;;
11533;SDS011;5823;50.588;8.462;2022-08-11T15:57:30;0.70;;;0.70;;
11533;SDS011;5823;50.588;8.462;2022-08-11T16:00:14;0.80;;;0.80;;
11533;SDS011;5823;50.588;8.462;2022-08-11T16:02:59;1.00;;;1.00;;
11533;SDS011;5823;50.588;8.462;2022-08-11T16:05:46;1.08;;;1.08;;
11533;SDS011;5823;50.588;8.462;2022-08-11T16:08:14;1.05;;;1.05;;
11533;SDS011;5823;50.588;8.462;2022-08-11T16:10:41;0.80;;;0.80;;
11533;SDS011;5823;50.588;8.462;2022-08-11T16:13:09;0.80;;;0.80;;
11533;SDS011;5823;50.588;8.462;2022-08-11T16:15:54;0.93;;;0.93;;
11533;SDS011;5823;50.588;8.462;2022-08-11T16:18:42;0.70;;;0.70;;
11533;SDS011;5823;50.588;8.462;2022-08-11T16:21:13;1.00;;;1.00;;
11533;SDS011;5823;50.588;8.462;2022-08-11T16:23:42;0.60;;;0.60;;
11533;SDS011;5823;50.588;8.462;2022-08-11T16:26:09;0.70;;;0.70;;
11533;SDS011;5823;50.588;8.462;2022-08-11T16:28:36;0.95;;;0.95;;
11533;SDS011;5823;50.588;8.462;2022-08-11T16:31:03;0.80;;;0.80;;
11533;SDS011;5823;50.588;8.462;2022-08-11T16:33:34;0.75;;;0.75;;